Hurontown, MI

8:45 PM EST on January 21, 2017 (GMT -0500)
Clark Street | | Change Station
Active Advisory: Dense Fog Advisory

Elev 643 ft 47.12 °N, 88.55 °W | Updated 17 seconds ago

Overcast
Overcast
35.9 °F
Feels Like 36 °F
N
2.0
Wind Variable Wind from NNE

Today
High -- | Low -- °F
--% Chance of Precip.
Yesterday
High -- | Low -- °F
Precip. -- in
Pressure 29.50 in
Visibility 0.5 miles
Clouds
Windchill 36 °F
Dew Point 35 °F
Humidity 98%
Rainfall 0.18 in
Snow Depth Not available.
8:31 AM 5:40 PM
Waning Crescent, 30% visible
SPECI KCMX 220131Z AUTO 10010KT 1/2SM FG VV002 02/01 A2950 RMK AO2 RAE10 P0001 T00170006
Pressure 29.50 in
Visibility 0.5 miles
Clouds
Windchill 36 °F
Dew Point 35 °F
Humidity 98%
Rainfall 0.18 in
Snow Depth Not available.
8:31 AM 5:40 PM
Waning Crescent, 30% visible
SPECI KCMX 220131Z AUTO 10010KT 1/2SM FG VV002 02/01 A2950 RMK AO2 RAE10 P0001 T00170006

Get Your Daily Forecast Email!

Thanks for signing up!

Be on the lookout for a verification email in your inbox.

You'll start receiving the daily forecast at 8 AM.

×

10-Day Weather Forecast

Almanac

Astronomy

Jan. 21, 2017 Rise Set
Actual Time
Civil Twilight
Nautical Twilight
Astronomical Twilight
Moon
Length of Visible Light
Length of Day
Tomorrow will be .
, % of the Moon is Illuminated

Today's Extremes

State Highs State Lows

Community

WunderPhotos

Upload Photos

1,962,540 photos uploaded!

WunderBlog® & News

Nearby

Air Quality

  Air Quality AQ Index Pollutant
Not available.

Snow Depth

Station Depth Elevation

Earthquake Activity

City Distance Mag. Time & Date
Minimum magnitude displayed is 2.5.

Coastal Water Temperatures

Place Temperature

Stations

Nearby Weather Stations

Station Location Temp. Windchill Dew Point Humidity Wind Precip. Elev Updated Type
                   

Watches & Warnings

Dense Fog Advisory
Issued: 1:23 PM CST Jan. 21, 2017 – National Weather Service

... Dense fog advisory remains in effect until 1 PM EST /noon CST/
Sunday...

Hazardous weather:

* patchy dense fog will become more widespread tonight into
   Sunday morning. Visibility will be lower than one-quarter
   mile at times.

Impacts:

* travel will be hazardous due to low visibility. When driving
   in dense fog be sure to turn on your headlights. Even though
   you may have no trouble seeing... other vehicles may have
   trouble seeing you.

* The fog freezing on untreated surfaces may result in slippery
   travel.

Precautionary/preparedness actions:

* a dense fog advisory means visibilities will frequently be
   reduced to less than one quarter mile.

* Prepare, plan, and stay informed. Visit www.Weather.Gov/MQT